createdAt,value
2022-11-06T00:00:20.577Z,23.20
2022-11-06T00:02:44.287Z,20.43
2022-11-06T00:05:27.260Z,21.10
2022-11-06T00:07:51.226Z,22.10
2022-11-06T00:10:15.090Z,20.07
2022-11-06T00:12:38.689Z,20.53
2022-11-06T00:15:02.219Z,21.23
2022-11-06T00:17:26.267Z,19.83
2022-11-06T00:19:49.848Z,18.90
2022-11-06T00:22:16.503Z,19.70
2022-11-06T00:24:40.006Z,19.67
2022-11-06T00:27:03.570Z,19.43
2022-11-06T00:29:27.186Z,18.17
2022-11-06T00:31:51.676Z,18.87
2022-11-06T00:34:15.168Z,19.80
2022-11-06T00:36:38.853Z,18.80
2022-11-06T00:39:04.763Z,19.20
2022-11-06T00:41:29.416Z,17.83
2022-11-06T00:43:55.254Z,17.90
2022-11-06T00:46:19.738Z,18.53
2022-11-06T00:48:43.790Z,17.83
2022-11-06T00:51:17.973Z,15.90
2022-11-06T00:53:42.057Z,16.73
2022-11-06T00:56:10.052Z,17.43
2022-11-06T00:58:33.793Z,15.47
2022-11-06T01:00:57.293Z,13.83
2022-11-06T01:03:20.881Z,15.40
2022-11-06T01:05:44.477Z,14.60
2022-11-06T01:08:08.042Z,14.43
2022-11-06T01:10:31.845Z,13.57
2022-11-06T01:12:56.829Z,14.60
2022-11-06T01:15:20.393Z,14.10
2022-11-06T01:17:43.968Z,14.60
2022-11-06T01:20:08.930Z,12.83
2022-11-06T01:22:32.485Z,11.93
2022-11-06T01:24:56.100Z,13.00
2022-11-06T01:27:26.498Z,11.37
2022-11-06T01:29:51.851Z,12.37
2022-11-06T01:32:15.399Z,12.60
2022-11-06T01:34:39.070Z,11.90
2022-11-06T01:37:02.672Z,11.77
2022-11-06T01:39:26.235Z,11.50
2022-11-06T01:41:52.377Z,12.70
2022-11-06T01:45:06.859Z,13.50
2022-11-06T01:47:31.555Z,13.03
2022-11-06T01:49:58.673Z,12.13
2022-11-06T01:52:22.990Z,12.60
2022-11-06T01:54:51.989Z,12.30
2022-11-06T01:57:15.688Z,12.53
2022-11-06T01:59:44.080Z,13.00
2022-11-06T02:02:09.495Z,14.00
2022-11-06T02:04:37.758Z,12.63
2022-11-06T02:07:02.294Z,12.67
2022-11-06T02:09:26.785Z,12.17
2022-11-06T02:11:56.902Z,12.73
2022-11-06T02:14:40.922Z,12.93
2022-11-06T02:17:11.024Z,12.40
2022-11-06T02:20:02.065Z,12.53
2022-11-06T02:22:41.661Z,12.67
2022-11-06T02:25:26.017Z,13.13
2022-11-06T02:27:58.100Z,12.53
2022-11-06T02:30:22.263Z,12.97
2022-11-06T02:32:50.026Z,12.97
2022-11-06T02:35:22.777Z,12.77
2022-11-06T02:37:48.761Z,13.43
2022-11-06T02:40:14.766Z,12.60
2022-11-06T02:42:43.444Z,12.53
2022-11-06T02:45:11.636Z,13.23
2022-11-06T02:47:36.481Z,12.50
2022-11-06T02:50:08.222Z,13.63
2022-11-06T02:52:36.514Z,13.10
2022-11-06T02:55:09.338Z,13.87
2022-11-06T02:57:38.912Z,13.43
2022-11-06T03:00:09.529Z,13.73
2022-11-06T03:02:40.937Z,13.60
2022-11-06T03:05:10.872Z,13.00
2022-11-06T03:07:39.450Z,13.20
2022-11-06T03:10:03.381Z,13.07
2022-11-06T03:12:31.341Z,12.40
2022-11-06T03:15:01.495Z,14.00
2022-11-06T03:17:39.244Z,13.67
2022-11-06T03:20:15.895Z,12.43
2022-11-06T03:22:47.513Z,13.93
2022-11-06T03:25:19.477Z,12.63
2022-11-06T03:27:52.774Z,13.07
2022-11-06T03:30:17.084Z,13.50
2022-11-06T03:32:48.648Z,14.30
2022-11-06T03:35:19.675Z,14.63
2022-11-06T03:37:51.121Z,13.20
2022-11-06T03:40:19.963Z,13.27
2022-11-06T03:42:47.489Z,14.00
2022-11-06T03:45:15.981Z,13.23
2022-11-06T03:47:43.901Z,15.00
2022-11-06T03:50:14.568Z,13.17
2022-11-06T03:52:44.768Z,14.33
2022-11-06T03:55:14.066Z,14.00
2022-11-06T03:57:43.976Z,13.73
2022-11-06T04:00:10.004Z,13.37
2022-11-06T04:02:45.839Z,13.63
2022-11-06T04:05:14.837Z,13.53
2022-11-06T04:08:03.609Z,13.97
2022-11-06T04:10:44.681Z,13.77
2022-11-06T04:13:26.128Z,14.37
2022-11-06T04:15:54.189Z,13.80
2022-11-06T04:18:21.639Z,14.63
2022-11-06T04:21:25.082Z,13.67
2022-11-06T04:24:23.626Z,13.63
2022-11-06T04:26:59.892Z,14.33
2022-11-06T04:29:37.508Z,14.00
2022-11-06T04:32:09.259Z,14.10
2022-11-06T04:34:44.933Z,13.90
2022-11-06T04:37:14.771Z,13.73
2022-11-06T04:39:51.473Z,13.70
2022-11-06T04:42:22.533Z,14.10
2022-11-06T04:44:51.851Z,12.93
2022-11-06T04:47:18.825Z,14.13
2022-11-06T04:49:45.397Z,14.60
2022-11-06T04:52:13.631Z,13.57
2022-11-06T04:54:37.461Z,13.77
2022-11-06T04:57:02.826Z,13.50
2022-11-06T04:59:26.364Z,13.50
2022-11-06T05:01:50.037Z,14.40
2022-11-06T05:04:14.184Z,13.27
2022-11-06T05:06:39.444Z,13.30
2022-11-06T05:09:02.971Z,14.33
2022-11-06T05:11:26.686Z,14.00
2022-11-06T05:13:50.209Z,13.00
2022-11-06T05:16:14.170Z,14.10
2022-11-06T05:18:38.161Z,14.77
2022-11-06T05:21:19.785Z,14.40
2022-11-06T05:23:44.837Z,14.00
2022-11-06T05:26:09.265Z,14.13
2022-11-06T05:28:33.125Z,13.33
2022-11-06T05:30:56.687Z,14.17
2022-11-06T05:33:20.236Z,14.50
2022-11-06T05:35:43.739Z,14.00
2022-11-06T05:38:07.366Z,12.87
2022-11-06T05:40:32.659Z,13.63
2022-11-06T05:42:56.848Z,13.17
2022-11-06T05:45:20.566Z,12.77
2022-11-06T05:47:44.236Z,13.13
2022-11-06T05:50:09.061Z,13.13
2022-11-06T05:52:32.762Z,13.83
2022-11-06T05:54:56.332Z,12.97
2022-11-06T05:57:21.310Z,13.77
2022-11-06T05:59:45.254Z,13.80
2022-11-06T06:02:09.220Z,13.70
2022-11-06T06:04:32.898Z,14.83
2022-11-06T06:06:56.525Z,14.13
2022-11-06T06:09:20.177Z,13.17
2022-11-06T06:11:43.774Z,13.63
2022-11-06T06:14:08.806Z,14.03
2022-11-06T06:16:33.023Z,13.87
2022-11-06T06:18:56.531Z,13.80
2022-11-06T06:21:20.431Z,14.30
2022-11-06T06:23:44.131Z,14.00
2022-11-06T06:26:07.934Z,14.53
2022-11-06T06:28:31.943Z,14.27
2022-11-06T06:31:01.194Z,13.40
2022-11-06T06:33:25.166Z,13.40
2022-11-06T06:35:48.766Z,14.67
2022-11-06T06:38:12.651Z,14.43
2022-11-06T06:40:36.393Z,14.10
2022-11-06T06:43:00.408Z,14.00
2022-11-06T06:45:24.072Z,14.10
2022-11-06T06:47:48.976Z,14.50
2022-11-06T06:50:12.576Z,15.13
2022-11-06T06:52:36.136Z,14.50
2022-11-06T06:54:59.701Z,14.47
2022-11-06T06:57:23.445Z,14.27
2022-11-06T06:59:47.003Z,13.60
2022-11-06T07:02:11.111Z,14.47
2022-11-06T07:04:36.198Z,13.67
2022-11-06T07:06:59.710Z,13.80
2022-11-06T07:09:23.899Z,12.83
2022-11-06T07:11:47.481Z,13.77
2022-11-06T07:14:11.766Z,13.23
2022-11-06T07:16:35.278Z,13.47
2022-11-06T07:18:59.054Z,13.17
2022-11-06T07:21:23.979Z,13.73
2022-11-06T07:23:47.544Z,13.47
2022-11-06T07:26:11.225Z,13.63
2022-11-06T07:28:35.209Z,12.87
2022-11-06T07:31:02.863Z,12.93
2022-11-06T07:33:26.530Z,12.87
2022-11-06T07:35:50.077Z,13.03
2022-11-06T07:38:15.275Z,13.27
2022-11-06T07:40:39.060Z,12.80
2022-11-06T07:43:06.649Z,12.93
2022-11-06T07:45:30.858Z,12.23
2022-11-06T07:47:59.247Z,13.33
2022-11-06T07:50:22.912Z,12.47
2022-11-06T07:52:46.535Z,12.37
2022-11-06T07:55:11.768Z,12.17
2022-11-06T07:57:38.418Z,12.03
2022-11-06T08:00:01.929Z,12.93
2022-11-06T08:02:25.650Z,12.23
2022-11-06T08:04:49.243Z,12.77
2022-11-06T08:07:12.785Z,11.70
2022-11-06T08:09:36.553Z,11.73
2022-11-06T08:12:01.610Z,14.53
2022-11-06T08:14:25.152Z,17.40
2022-11-06T08:16:48.742Z,12.17
2022-11-06T08:19:12.268Z,11.23
2022-11-06T08:21:35.952Z,12.40
2022-11-06T08:23:59.509Z,12.02
2022-11-06T08:26:23.066Z,10.97
2022-11-06T08:28:48.001Z,12.63
2022-11-06T08:31:11.801Z,29.23
2022-11-06T08:33:37.242Z,41.80
2022-11-06T08:36:03.528Z,18.40
2022-11-06T08:38:27.069Z,12.63
2022-11-06T08:40:53.660Z,11.13
2022-11-06T08:43:17.672Z,10.75
2022-11-06T08:45:44.369Z,10.25
2022-11-06T08:48:09.301Z,9.70
2022-11-06T08:50:33.854Z,10.27
2022-11-06T08:52:58.343Z,10.23
2022-11-06T08:55:21.916Z,10.07
2022-11-06T08:57:45.478Z,9.82
2022-11-06T09:00:11.974Z,11.95
2022-11-06T09:02:37.056Z,10.45
2022-11-06T09:05:00.703Z,8.68
2022-11-06T09:07:24.364Z,8.52
2022-11-06T09:09:47.977Z,8.10
2022-11-06T09:12:11.578Z,8.30
2022-11-06T09:14:35.729Z,8.40
2022-11-06T09:17:00.028Z,8.48
2022-11-06T09:19:24.985Z,8.02
2022-11-06T09:21:54.402Z,7.75
2022-11-06T09:24:27.544Z,7.47
2022-11-06T09:27:01.950Z,7.00
2022-11-06T09:29:25.458Z,7.28
2022-11-06T09:31:49.029Z,7.45
2022-11-06T09:34:12.667Z,7.07
2022-11-06T09:36:37.757Z,7.45
2022-11-06T09:39:01.281Z,7.20
2022-11-06T09:41:36.249Z,7.00
2022-11-06T09:44:18.066Z,17.80
2022-11-06T09:46:46.155Z,39.38
2022-11-06T09:49:19.953Z,21.67
2022-11-06T09:51:54.729Z,15.85
2022-11-06T09:54:25.145Z,14.77
2022-11-06T09:56:56.860Z,24.63
2022-11-06T09:59:22.149Z,10.32
2022-11-06T10:01:49.538Z,7.78
2022-11-06T10:04:30.824Z,7.22
2022-11-06T10:06:56.378Z,7.10
2022-11-06T10:09:20.000Z,6.50
2022-11-06T10:11:56.351Z,7.53
2022-11-06T10:14:45.348Z,8.38
2022-11-06T10:17:21.177Z,7.57
2022-11-06T10:19:56.434Z,7.38
2022-11-06T10:22:30.566Z,8.93
2022-11-06T10:25:05.052Z,6.90
2022-11-06T10:27:34.586Z,6.63
2022-11-06T10:30:07.074Z,6.70
2022-11-06T10:33:06.414Z,6.63
2022-11-06T10:35:37.265Z,6.47
2022-11-06T10:38:08.097Z,6.30
2022-11-06T10:40:35.121Z,7.90
2022-11-06T10:43:09.393Z,5.80
2022-11-06T10:45:33.771Z,6.22
2022-11-06T10:48:03.526Z,5.90
2022-11-06T10:50:37.326Z,6.40
2022-11-06T10:53:07.905Z,6.65
2022-11-06T10:56:10.995Z,9.52
2022-11-06T10:58:35.672Z,18.98
2022-11-06T11:01:03.860Z,7.05
2022-11-06T11:03:32.188Z,9.55
2022-11-06T11:05:56.362Z,7.22
2022-11-06T11:08:43.571Z,7.32
2022-11-06T11:11:18.081Z,11.70
2022-11-06T11:13:42.083Z,7.18
2022-11-06T11:16:06.773Z,12.75
2022-11-06T11:18:32.357Z,9.25
2022-11-06T11:21:09.566Z,12.55
2022-11-06T11:23:34.651Z,27.33
2022-11-06T11:26:19.742Z,17.58
2022-11-06T11:28:43.452Z,22.20
2022-11-06T11:31:09.989Z,35.60
2022-11-06T11:33:34.017Z,6.40
2022-11-06T11:35:57.678Z,13.27
2022-11-06T11:38:22.935Z,6.80
2022-11-06T11:40:47.893Z,6.50
2022-11-06T11:43:25.422Z,5.35
2022-11-06T11:46:15.745Z,4.60
2022-11-06T11:48:48.233Z,7.18
2022-11-06T11:51:35.522Z,6.63
2022-11-06T11:54:05.590Z,7.45
2022-11-06T11:56:58.201Z,9.90
2022-11-06T11:59:21.006Z,6.60
2022-11-06T12:01:44.768Z,6.88
2022-11-06T12:04:23.052Z,7.50
2022-11-06T12:06:58.144Z,7.38
2022-11-06T12:09:22.663Z,5.78
2022-11-06T12:11:48.467Z,7.20
2022-11-06T12:14:27.481Z,5.68
2022-11-06T12:16:55.503Z,5.75
2022-11-06T12:19:21.975Z,5.57
2022-11-06T12:21:47.769Z,5.90
2022-11-06T12:24:17.120Z,5.50
2022-11-06T12:26:49.924Z,5.57
2022-11-06T12:29:17.619Z,6.25
2022-11-06T12:31:46.492Z,6.18
2022-11-06T12:34:18.199Z,5.43
2022-11-06T12:36:58.084Z,5.68
2022-11-06T12:39:25.581Z,3.72
2022-11-06T12:41:52.363Z,5.50
2022-11-06T12:44:18.068Z,5.65
2022-11-06T12:46:53.318Z,6.00
2022-11-06T12:49:53.015Z,4.82
2022-11-06T12:52:45.001Z,5.03
2022-11-06T12:55:22.030Z,4.43
2022-11-06T12:58:12.477Z,4.65
2022-11-06T13:00:46.701Z,4.65
2022-11-06T13:03:40.826Z,5.35
2022-11-06T13:06:13.416Z,9.70
2022-11-06T13:08:46.973Z,6.45
2022-11-06T13:11:27.194Z,9.32
2022-11-06T13:14:09.456Z,5.18
2022-11-06T13:16:40.907Z,7.75
2022-11-06T13:19:12.077Z,15.65
2022-11-06T13:22:01.761Z,4.85
2022-11-06T13:24:33.133Z,7.57
2022-11-06T13:27:03.753Z,5.15
2022-11-06T13:29:28.789Z,3.97
2022-11-06T13:31:57.362Z,5.80
2022-11-06T13:34:26.488Z,4.50
2022-11-06T13:36:50.560Z,6.40
2022-11-06T13:39:22.050Z,4.75
2022-11-06T13:41:45.621Z,4.57
2022-11-06T13:44:15.991Z,5.38
2022-11-06T13:46:52.759Z,4.47
2022-11-06T13:49:24.568Z,5.18
2022-11-06T13:51:55.387Z,4.07
2022-11-06T13:54:37.272Z,3.50
2022-11-06T13:57:38.003Z,3.78
2022-11-06T14:00:20.402Z,4.35
2022-11-06T14:03:41.034Z,4.18
2022-11-06T14:06:07.830Z,3.40
2022-11-06T14:08:36.458Z,3.53
2022-11-06T14:11:04.981Z,3.80
2022-11-06T14:13:34.731Z,3.65
2022-11-06T14:16:19.342Z,55.92
2022-11-06T14:18:44.611Z,22.98
2022-11-06T14:21:47.915Z,16.08
2022-11-06T14:24:32.133Z,10.68
2022-11-06T14:26:56.024Z,14.43
2022-11-06T14:29:56.717Z,5.05
2022-11-06T14:32:46.041Z,26.95
2022-11-06T14:35:54.083Z,7.70
2022-11-06T14:38:43.681Z,5.63
2022-11-06T14:41:56.416Z,5.82
2022-11-06T14:44:44.338Z,4.80
2022-11-06T14:47:20.468Z,4.00
2022-11-06T14:49:51.330Z,3.60
2022-11-06T14:52:18.472Z,3.85
2022-11-06T14:54:52.299Z,3.80
2022-11-06T14:57:19.813Z,3.75
2022-11-06T14:59:44.149Z,4.07
2022-11-06T15:02:20.530Z,4.88
2022-11-06T15:04:49.164Z,4.05
2022-11-06T15:08:03.407Z,4.63
2022-11-06T15:10:51.771Z,4.15
2022-11-06T15:13:26.965Z,4.45
2022-11-06T15:15:53.498Z,4.75
2022-11-06T15:18:22.984Z,4.38
2022-11-06T15:20:51.936Z,3.70
2022-11-06T15:23:21.212Z,4.15
2022-11-06T15:26:02.519Z,4.70
2022-11-06T15:28:33.064Z,4.40
2022-11-06T15:31:02.375Z,5.15
2022-11-06T15:33:33.115Z,4.05
2022-11-06T15:36:00.141Z,4.70
2022-11-06T15:38:36.871Z,6.35
2022-11-06T15:41:00.537Z,5.40
2022-11-06T15:43:30.300Z,5.80
2022-11-06T15:46:23.791Z,6.38
2022-11-06T15:48:47.872Z,6.15
2022-11-06T15:51:26.318Z,6.30
2022-11-06T15:53:52.073Z,6.05
2022-11-06T15:56:17.612Z,6.15
2022-11-06T15:58:41.545Z,6.57
2022-11-06T16:01:07.578Z,7.07
2022-11-06T16:03:34.044Z,6.85
2022-11-06T16:06:00.681Z,7.15
2022-11-06T16:08:27.529Z,6.30
2022-11-06T16:10:53.737Z,6.78
2022-11-06T16:13:20.214Z,6.07
2022-11-06T16:15:52.627Z,6.47
2022-11-06T16:18:20.487Z,5.68
2022-11-06T16:20:45.077Z,6.80
2022-11-06T16:23:12.023Z,7.50
2022-11-06T16:25:35.875Z,13.90
2022-11-06T16:28:00.877Z,9.93
2022-11-06T16:30:25.999Z,14.80
2022-11-06T16:32:50.482Z,16.75
2022-11-06T16:35:34.366Z,11.50
2022-11-06T16:38:18.909Z,11.25
2022-11-06T16:40:53.317Z,10.05
2022-11-06T16:43:20.981Z,8.90
2022-11-06T16:45:58.680Z,8.80
2022-11-06T16:48:34.647Z,8.63
2022-11-06T16:51:00.641Z,8.25
2022-11-06T16:53:27.105Z,9.05
2022-11-06T16:55:59.069Z,8.65
2022-11-06T16:58:25.280Z,7.80
2022-11-06T17:00:59.523Z,8.25
2022-11-06T17:03:24.566Z,8.55
2022-11-06T17:05:54.134Z,8.40
2022-11-06T17:08:26.126Z,8.15
2022-11-06T17:10:50.570Z,7.03
2022-11-06T17:13:18.154Z,6.82
2022-11-06T17:15:44.126Z,6.72
2022-11-06T17:18:07.889Z,6.00
2022-11-06T17:20:33.202Z,5.80
2022-11-06T17:22:56.708Z,5.90
2022-11-06T17:25:20.437Z,5.88
2022-11-06T17:27:43.949Z,6.13
2022-11-06T17:30:12.988Z,5.03
2022-11-06T17:32:37.993Z,5.70
2022-11-06T17:35:01.637Z,5.55
2022-11-06T17:37:26.290Z,6.05
2022-11-06T17:39:50.099Z,6.10
2022-11-06T17:42:13.628Z,6.43
2022-11-06T17:44:37.409Z,6.70
2022-11-06T17:47:00.970Z,6.30
2022-11-06T17:49:26.061Z,60.72
2022-11-06T17:51:58.215Z,101.22
2022-11-06T17:54:25.402Z,76.28
2022-11-06T17:56:49.913Z,47.95
2022-11-06T17:59:15.286Z,25.48
2022-11-06T18:01:39.197Z,19.15
2022-11-06T18:04:03.032Z,10.52
2022-11-06T18:06:28.739Z,10.52
2022-11-06T18:08:57.712Z,8.27
2022-11-06T18:11:21.230Z,7.75
2022-11-06T18:13:45.442Z,7.40
2022-11-06T18:16:17.385Z,10.20
2022-11-06T18:18:41.057Z,9.10
2022-11-06T18:21:05.807Z,9.23
2022-11-06T18:23:31.102Z,11.48
2022-11-06T18:25:56.965Z,12.70
2022-11-06T18:28:20.572Z,9.45
2022-11-06T18:30:44.057Z,9.68
2022-11-06T18:33:07.693Z,9.85
2022-11-06T18:35:31.245Z,13.50
2022-11-06T18:37:54.876Z,12.57
2022-11-06T18:40:20.010Z,8.40
2022-11-06T18:42:43.687Z,7.43
2022-11-06T18:45:08.549Z,7.47
2022-11-06T18:47:32.153Z,7.72
2022-11-06T18:49:55.730Z,8.13
2022-11-06T18:52:37.956Z,8.43
2022-11-06T18:55:02.895Z,9.30
2022-11-06T18:57:27.873Z,9.05
2022-11-06T18:59:51.457Z,9.38
2022-11-06T19:02:17.026Z,7.85
2022-11-06T19:04:40.738Z,8.20
2022-11-06T19:07:04.376Z,8.52
2022-11-06T19:09:28.285Z,8.80
2022-11-06T19:11:51.822Z,10.35
2022-11-06T19:14:16.844Z,8.48
2022-11-06T19:16:40.353Z,8.60
2022-11-06T19:19:06.414Z,12.73
2022-11-06T19:21:31.491Z,10.40
2022-11-06T19:24:00.299Z,9.20
2022-11-06T19:26:31.752Z,10.27
2022-11-06T19:28:58.042Z,11.50
2022-11-06T19:31:28.980Z,12.73
2022-11-06T19:33:53.080Z,10.18
2022-11-06T19:36:16.574Z,9.60
2022-11-06T19:38:40.265Z,11.48
2022-11-06T19:41:05.997Z,13.70
2022-11-06T19:43:30.283Z,16.05
2022-11-06T19:45:53.829Z,10.65
2022-11-06T19:48:18.822Z,13.95
2022-11-06T19:50:59.414Z,12.35
2022-11-06T19:53:25.253Z,10.80
2022-11-06T19:55:49.490Z,12.88
2022-11-06T19:58:13.165Z,16.30
2022-11-06T20:00:36.710Z,12.25
2022-11-06T20:03:00.271Z,11.80
2022-11-06T20:05:25.697Z,10.93
2022-11-06T20:07:49.341Z,10.75
2022-11-06T20:10:12.860Z,13.68
2022-11-06T20:12:36.439Z,12.63
2022-11-06T20:14:59.990Z,48.70
2022-11-06T20:17:23.648Z,12.85
2022-11-06T20:19:47.319Z,12.10
2022-11-06T20:22:12.501Z,13.00
2022-11-06T20:24:37.886Z,12.77
2022-11-06T20:27:01.537Z,13.02
2022-11-06T20:29:25.689Z,12.63
2022-11-06T20:31:49.425Z,13.63
2022-11-06T20:34:13.041Z,12.50
2022-11-06T20:36:36.722Z,12.15
2022-11-06T20:39:03.393Z,11.88
2022-11-06T20:41:28.725Z,12.55
2022-11-06T20:43:53.560Z,13.48
2022-11-06T20:46:19.158Z,16.25
2022-11-06T20:48:43.026Z,14.38
2022-11-06T20:51:10.005Z,13.02
2022-11-06T20:53:34.506Z,14.43
2022-11-06T20:56:00.724Z,13.13
2022-11-06T20:58:24.615Z,13.10
2022-11-06T21:00:48.234Z,13.68
2022-11-06T21:03:11.911Z,11.10
2022-11-06T21:05:36.751Z,13.40
2022-11-06T21:08:00.358Z,12.75
2022-11-06T21:10:23.952Z,13.25
2022-11-06T21:12:48.889Z,14.00
2022-11-06T21:15:12.509Z,13.10
2022-11-06T21:17:36.131Z,14.48
2022-11-06T21:19:59.718Z,17.55
2022-11-06T21:22:23.431Z,14.77
2022-11-06T21:24:47.104Z,14.75
2022-11-06T21:27:10.897Z,13.63
2022-11-06T21:29:36.146Z,14.02
2022-11-06T21:31:59.646Z,14.90
2022-11-06T21:34:23.250Z,13.60
2022-11-06T21:36:47.279Z,12.73
2022-11-06T21:39:15.383Z,14.77
2022-11-06T21:41:39.489Z,15.15
2022-11-06T21:44:04.462Z,14.88
2022-11-06T21:46:29.827Z,16.73
2022-11-06T21:48:53.885Z,14.60
2022-11-06T21:51:20.217Z,14.65
2022-11-06T21:54:01.292Z,16.08
2022-11-06T21:56:26.319Z,16.40
2022-11-06T21:58:51.992Z,13.23
2022-11-06T22:01:15.780Z,14.82
2022-11-06T22:03:41.330Z,14.43
2022-11-06T22:06:09.859Z,16.42
2022-11-06T22:08:33.416Z,15.43
2022-11-06T22:10:57.026Z,15.38
2022-11-06T22:13:20.633Z,15.25
2022-11-06T22:15:44.233Z,15.30
2022-11-06T22:18:07.797Z,16.00
2022-11-06T22:20:32.780Z,14.57
2022-11-06T22:22:56.371Z,15.25
2022-11-06T22:25:20.072Z,15.23
2022-11-06T22:27:44.583Z,15.48
2022-11-06T22:30:10.056Z,15.07
2022-11-06T22:32:33.623Z,14.85
2022-11-06T22:34:57.222Z,15.38
2022-11-06T22:37:22.139Z,14.43
2022-11-06T22:39:45.749Z,14.80
2022-11-06T22:42:09.670Z,15.88
2022-11-06T22:44:33.983Z,14.73
2022-11-06T22:46:57.785Z,15.00
2022-11-06T22:49:21.698Z,15.27
2022-11-06T22:51:45.250Z,15.90
2022-11-06T22:54:10.269Z,14.18
2022-11-06T22:56:34.369Z,15.57
2022-11-06T22:59:00.303Z,15.60
2022-11-06T23:01:26.896Z,14.40
2022-11-06T23:03:50.886Z,16.00
2022-11-06T23:06:14.526Z,16.23
2022-11-06T23:08:44.136Z,15.45
2022-11-06T23:11:14.370Z,15.82
2022-11-06T23:13:38.157Z,17.30
2022-11-06T23:16:09.204Z,15.80
2022-11-06T23:18:33.110Z,14.60
2022-11-06T23:20:56.683Z,14.77
2022-11-06T23:23:20.304Z,15.25
2022-11-06T23:25:43.812Z,15.63
2022-11-06T23:28:08.830Z,14.60
2022-11-06T23:30:32.933Z,14.23
2022-11-06T23:32:56.811Z,13.98
2022-11-06T23:35:22.762Z,15.35
2022-11-06T23:37:46.617Z,13.88
2022-11-06T23:40:12.745Z,13.73
2022-11-06T23:42:36.480Z,14.57
2022-11-06T23:45:21.449Z,15.15
2022-11-06T23:47:45.201Z,14.82
2022-11-06T23:50:09.868Z,14.80
2022-11-06T23:52:34.160Z,14.85
2022-11-06T23:54:57.990Z,15.38
2022-11-06T23:57:22.102Z,14.63
2022-11-06T23:59:45.641Z,13.73
